createdAt,value
2023-12-23T00:01:37.379Z,64.40
2023-12-23T00:05:37.631Z,64.81
2023-12-23T00:09:37.892Z,65.46
2023-12-23T00:13:40.782Z,64.58
2023-12-23T00:17:41.230Z,64.31
2023-12-23T00:21:41.512Z,63.45
2023-12-23T00:25:41.771Z,64.19
2023-12-23T00:29:44.783Z,64.26
2023-12-23T00:33:49.251Z,64.65
2023-12-23T00:37:49.743Z,63.94
2023-12-23T00:41:50.052Z,63.23
2023-12-23T00:45:53.462Z,62.39
2023-12-23T00:49:53.714Z,63.05
2023-12-23T00:53:53.872Z,63.24
2023-12-23T00:57:54.166Z,62.93
2023-12-23T01:01:56.903Z,62.70
2023-12-23T01:05:57.273Z,61.79
2023-12-23T01:09:58.792Z,61.47
2023-12-23T01:13:59.103Z,61.75
2023-12-23T01:18:02.012Z,61.25
2023-12-23T01:22:02.825Z,61.54
2023-12-23T01:26:03.180Z,61.59
2023-12-23T01:30:04.970Z,61.51
2023-12-23T01:34:07.764Z,62.24
2023-12-23T01:38:08.769Z,61.93
2023-12-23T01:42:10.326Z,62.38
2023-12-23T01:46:11.020Z,62.31
2023-12-23T01:50:15.488Z,61.52
2023-12-23T01:54:16.118Z,62.28
2023-12-23T01:58:16.456Z,61.83
2023-12-23T02:02:17.991Z,62.37
2023-12-23T02:06:20.982Z,62.50
2023-12-23T02:10:21.871Z,62.51
2023-12-23T02:14:32.137Z,61.96
2023-12-23T02:18:32.306Z,61.77
2023-12-23T02:22:35.174Z,61.08
2023-12-23T02:26:40.005Z,60.79
2023-12-23T02:30:46.205Z,61.67
2023-12-23T02:34:47.387Z,61.27
2023-12-23T02:38:50.402Z,59.91
2023-12-23T02:42:51.190Z,61.50
2023-12-23T02:46:51.698Z,60.68
2023-12-23T02:50:52.217Z,60.60
2023-12-23T02:54:54.983Z,60.10
2023-12-23T02:58:55.775Z,60.13
2023-12-23T03:02:58.020Z,59.81
2023-12-23T03:06:58.174Z,59.46
2023-12-23T03:11:00.984Z,60.16
2023-12-23T03:15:01.582Z,59.76
2023-12-23T03:19:02.378Z,60.28
2023-12-23T03:23:02.650Z,60.48
2023-12-23T03:27:05.469Z,59.78
2023-12-23T03:31:05.692Z,61.05
2023-12-23T03:35:06.080Z,60.50
2023-12-23T03:39:08.420Z,60.69
2023-12-23T03:43:11.258Z,60.94
2023-12-23T03:47:11.877Z,61.13
2023-12-23T03:51:12.143Z,60.98
2023-12-23T03:55:15.215Z,61.16
2023-12-23T03:59:18.096Z,60.92
2023-12-23T04:03:19.372Z,59.53
2023-12-23T04:07:20.025Z,59.38
2023-12-23T04:11:20.415Z,60.02
2023-12-23T04:15:23.341Z,59.93
2023-12-23T04:19:23.578Z,60.90
2023-12-23T04:23:23.891Z,60.89
2023-12-23T04:27:24.294Z,61.40
2023-12-23T04:31:28.272Z,62.28
2023-12-23T04:35:28.568Z,62.58
2023-12-23T04:39:29.169Z,61.78
2023-12-23T04:43:31.622Z,61.81
2023-12-23T04:47:34.887Z,62.07
2023-12-23T04:51:35.155Z,62.64
2023-12-23T04:55:35.534Z,61.83
2023-12-23T04:59:35.930Z,61.53
2023-12-23T05:03:38.719Z,62.99
2023-12-23T05:07:39.153Z,63.65
2023-12-23T05:11:39.370Z,62.96
2023-12-23T05:15:39.564Z,63.19
2023-12-23T05:19:44.567Z,63.88
2023-12-23T05:23:44.813Z,63.69
2023-12-23T05:27:45.031Z,64.23
2023-12-23T05:31:45.231Z,63.50
2023-12-23T05:35:48.008Z,63.22
2023-12-23T05:39:49.677Z,63.84
2023-12-23T05:43:49.892Z,63.52
2023-12-23T05:47:51.925Z,62.20
2023-12-23T05:51:56.829Z,63.12
2023-12-23T05:55:57.113Z,62.36
2023-12-23T05:59:58.952Z,63.00
2023-12-23T06:03:59.306Z,62.73
2023-12-23T06:08:03.521Z,61.28
2023-12-23T06:12:03.776Z,62.24
2023-12-23T06:16:09.826Z,62.52
2023-12-23T06:20:11.726Z,62.36
2023-12-23T06:24:14.743Z,63.31
2023-12-23T06:28:15.133Z,64.09
2023-12-23T06:32:15.452Z,63.12
2023-12-23T06:36:15.724Z,63.16
2023-12-23T06:40:18.910Z,62.95
2023-12-23T06:44:19.115Z,64.56
2023-12-23T06:48:19.431Z,63.89
2023-12-23T06:52:19.798Z,64.36
2023-12-23T06:56:23.996Z,64.88
2023-12-23T07:00:24.480Z,64.63
2023-12-23T07:04:24.668Z,63.74
2023-12-23T07:08:25.713Z,63.25
2023-12-23T07:12:29.340Z,65.35
2023-12-23T07:16:29.995Z,63.76
2023-12-23T07:20:30.237Z,65.28
2023-12-23T07:24:30.488Z,63.99
2023-12-23T07:28:34.071Z,64.16
2023-12-23T07:32:34.404Z,63.27
2023-12-23T07:36:34.775Z,63.31
2023-12-23T07:40:36.574Z,63.38
2023-12-23T07:44:39.369Z,64.24
2023-12-23T07:48:39.540Z,63.36
2023-12-23T07:52:40.848Z,63.46
2023-12-23T07:56:41.010Z,63.94
2023-12-23T08:00:44.184Z,63.35
2023-12-23T08:04:44.805Z,64.17
2023-12-23T08:08:45.073Z,63.74
2023-12-23T08:12:45.400Z,64.40
2023-12-23T08:16:48.169Z,64.75
2023-12-23T08:20:48.441Z,64.51
2023-12-23T08:24:48.665Z,63.83
2023-12-23T08:28:48.900Z,65.45
2023-12-23T08:32:52.359Z,64.81
2023-12-23T08:36:52.977Z,64.83
2023-12-23T08:40:53.217Z,64.14
2023-12-23T08:44:53.734Z,65.79
2023-12-23T08:48:56.559Z,63.44
2023-12-23T08:52:56.761Z,65.06
2023-12-23T08:56:56.971Z,64.72
2023-12-23T09:00:57.267Z,65.54
2023-12-23T09:05:00.075Z,65.01
2023-12-23T09:09:01.359Z,64.26
2023-12-23T09:13:01.541Z,66.72
2023-12-23T09:17:01.754Z,65.53
2023-12-23T09:21:05.162Z,65.44
2023-12-23T09:25:05.635Z,65.49
2023-12-23T09:29:06.096Z,65.26
2023-12-23T09:33:07.296Z,64.58
2023-12-23T09:37:10.383Z,65.77
2023-12-23T09:41:10.722Z,65.49
2023-12-23T09:45:12.150Z,64.96
2023-12-23T09:49:12.470Z,64.94
2023-12-23T09:53:17.677Z,64.60
2023-12-23T09:57:18.792Z,65.90
2023-12-23T10:01:18.954Z,65.36
2023-12-23T10:05:22.394Z,66.71
2023-12-23T10:09:25.757Z,66.17
2023-12-23T10:13:25.964Z,66.11
2023-12-23T10:17:26.293Z,65.00
2023-12-23T10:21:26.533Z,65.75
2023-12-23T10:25:29.371Z,65.33
2023-12-23T10:29:35.162Z,65.73
2023-12-23T10:33:42.413Z,65.79
2023-12-23T10:37:46.703Z,66.13
2023-12-23T10:41:55.466Z,65.20
2023-12-23T10:45:58.523Z,66.24
2023-12-23T10:50:00.568Z,65.51
2023-12-23T10:54:04.873Z,65.23
2023-12-23T10:58:10.800Z,66.36
2023-12-23T11:02:17.428Z,64.89
2023-12-23T11:06:19.524Z,65.54
2023-12-23T11:10:22.373Z,65.12
2023-12-23T11:14:25.581Z,66.01
2023-12-23T11:18:26.213Z,66.25
2023-12-23T11:22:31.867Z,65.90
2023-12-23T11:26:46.289Z,66.62
2023-12-23T11:30:54.235Z,66.68
2023-12-23T11:34:55.467Z,65.49
2023-12-23T11:38:57.407Z,65.76
2023-12-23T11:42:59.031Z,65.94
2023-12-23T11:47:02.513Z,65.31
2023-12-23T11:51:04.103Z,65.25
2023-12-23T11:55:04.949Z,66.74
2023-12-23T11:59:05.555Z,66.33
2023-12-23T12:03:09.314Z,66.06
2023-12-23T12:07:09.927Z,66.21
2023-12-23T12:11:13.449Z,65.43
2023-12-23T12:15:14.544Z,65.94
2023-12-23T12:19:17.552Z,66.07
2023-12-23T12:23:18.528Z,66.28
2023-12-23T12:27:18.957Z,65.08
2023-12-23T12:31:19.227Z,66.96
2023-12-23T12:35:22.884Z,67.00
2023-12-23T12:39:23.367Z,66.78
2023-12-23T12:43:25.717Z,65.43
2023-12-23T12:47:27.666Z,66.52
2023-12-23T12:51:30.917Z,66.78
2023-12-23T12:55:31.225Z,66.06
2023-12-23T12:59:31.968Z,66.11
2023-12-23T13:03:32.592Z,66.81
2023-12-23T13:07:35.370Z,66.02
2023-12-23T13:11:36.420Z,65.18
2023-12-23T13:15:36.750Z,66.32
2023-12-23T13:19:37.096Z,66.39
2023-12-23T13:23:40.111Z,65.85
2023-12-23T13:27:40.799Z,66.77
2023-12-23T13:31:41.251Z,66.30
2023-12-23T13:35:41.687Z,67.03
2023-12-23T13:39:44.441Z,65.91
2023-12-23T13:43:44.817Z,66.96
2023-12-23T13:47:45.281Z,67.69
2023-12-23T13:51:46.615Z,66.48
2023-12-23T13:55:51.270Z,65.85
2023-12-23T13:59:52.404Z,66.50
2023-12-23T14:03:52.761Z,66.89
2023-12-23T14:07:53.005Z,66.75
2023-12-23T14:11:55.852Z,66.38
2023-12-23T14:15:56.192Z,67.08
2023-12-23T14:19:56.622Z,66.95
2023-12-23T14:23:57.243Z,67.62
2023-12-23T14:28:00.062Z,65.48
2023-12-23T14:32:00.764Z,64.97
2023-12-23T14:36:01.512Z,67.48
2023-12-23T14:40:02.865Z,67.25
2023-12-23T14:44:06.755Z,66.91
2023-12-23T14:48:07.636Z,66.45
2023-12-23T14:52:09.120Z,67.46
2023-12-23T14:56:10.293Z,66.84
2023-12-23T15:00:17.041Z,66.78
2023-12-23T15:04:17.550Z,67.38
2023-12-23T15:08:18.167Z,67.13
2023-12-23T15:12:20.686Z,67.24
2023-12-23T15:16:23.802Z,65.01
2023-12-23T15:20:24.046Z,65.93
2023-12-23T15:24:25.052Z,67.62
2023-12-23T15:28:25.676Z,66.03
2023-12-23T15:32:28.629Z,66.87
2023-12-23T15:36:28.863Z,65.49
2023-12-23T15:40:29.115Z,66.31
2023-12-23T15:44:31.111Z,66.31
2023-12-23T15:48:34.062Z,64.75
2023-12-23T15:52:36.023Z,64.67
2023-12-23T15:56:40.930Z,66.21
2023-12-23T16:00:41.225Z,65.22
2023-12-23T16:04:43.994Z,64.97
2023-12-23T16:08:44.325Z,66.09
2023-12-23T16:12:44.781Z,66.37
2023-12-23T16:16:45.049Z,66.20
2023-12-23T16:20:48.069Z,66.35
2023-12-23T16:24:48.503Z,66.62
2023-12-23T16:28:48.928Z,65.93
2023-12-23T16:32:50.389Z,66.45
2023-12-23T16:36:53.522Z,66.82
2023-12-23T16:40:53.973Z,66.09
2023-12-23T16:44:54.804Z,66.13
2023-12-23T16:48:55.428Z,66.72
2023-12-23T16:52:58.667Z,65.19
2023-12-23T16:56:59.319Z,65.33
2023-12-23T17:00:59.782Z,65.65
2023-12-23T17:05:00.356Z,66.51
2023-12-23T17:09:03.541Z,65.24
2023-12-23T17:13:03.885Z,65.85
2023-12-23T17:17:04.732Z,63.83
2023-12-23T17:21:05.177Z,63.25
2023-12-23T17:25:08.857Z,63.91
2023-12-23T17:29:09.456Z,63.30
2023-12-23T17:33:14.249Z,63.65
2023-12-23T17:37:15.043Z,63.43
2023-12-23T17:41:18.373Z,63.77
2023-12-23T17:45:18.948Z,64.17
2023-12-23T17:49:20.338Z,65.92
2023-12-23T17:53:22.877Z,64.95
2023-12-23T17:57:28.366Z,64.42
2023-12-23T18:01:28.862Z,64.52
2023-12-23T18:05:29.270Z,65.79
2023-12-23T18:09:29.668Z,64.97
2023-12-23T18:13:32.586Z,65.37
2023-12-23T18:17:33.090Z,65.15
2023-12-23T18:21:33.491Z,65.48
2023-12-23T18:25:33.946Z,65.95
2023-12-23T18:29:37.043Z,65.93
2023-12-23T18:33:37.584Z,64.47
2023-12-23T18:37:38.329Z,64.82
2023-12-23T18:41:38.709Z,64.38
2023-12-23T18:45:41.823Z,65.49
2023-12-23T18:49:42.899Z,66.70
2023-12-23T18:53:43.540Z,66.30
2023-12-23T18:57:44.323Z,65.83
2023-12-23T19:01:47.326Z,66.45
2023-12-23T19:05:47.635Z,67.41
2023-12-23T19:09:47.972Z,67.37
2023-12-23T19:13:48.230Z,65.63
2023-12-23T19:17:54.076Z,66.40
2023-12-23T19:21:55.760Z,66.12
2023-12-23T19:25:56.795Z,65.95
2023-12-23T19:29:57.146Z,66.85
2023-12-23T19:34:01.572Z,66.61
2023-12-23T19:38:02.592Z,66.67
2023-12-23T19:42:04.817Z,67.64
2023-12-23T19:46:05.765Z,66.62
2023-12-23T19:50:10.637Z,66.72
2023-12-23T19:54:11.002Z,65.78
2023-12-23T19:58:11.685Z,65.61
2023-12-23T20:02:12.251Z,65.43
2023-12-23T20:06:17.171Z,67.25
2023-12-23T20:10:17.482Z,67.34
2023-12-23T20:14:17.891Z,67.47
2023-12-23T20:18:18.295Z,67.08
2023-12-23T20:22:24.041Z,66.19
2023-12-23T20:26:24.949Z,66.14
2023-12-23T20:30:25.430Z,66.60
2023-12-23T20:34:26.216Z,64.93
2023-12-23T20:38:29.622Z,65.42
2023-12-23T20:42:30.611Z,64.09
2023-12-23T20:46:31.796Z,66.08
2023-12-23T20:50:32.404Z,66.11
2023-12-23T20:54:35.394Z,65.15
2023-12-23T20:58:35.733Z,65.91
2023-12-23T21:02:36.242Z,65.80
2023-12-23T21:06:36.680Z,67.54
2023-12-23T21:10:39.581Z,67.66
2023-12-23T21:14:39.789Z,67.91
2023-12-23T21:18:44.047Z,67.32
2023-12-23T21:22:45.803Z,66.80
2023-12-23T21:26:49.049Z,65.70
2023-12-23T21:30:49.733Z,65.02
2023-12-23T21:34:50.534Z,67.02
2023-12-23T21:38:50.757Z,66.69
2023-12-23T21:42:53.833Z,66.57
2023-12-23T21:46:56.764Z,67.10
2023-12-23T21:50:57.429Z,67.21
2023-12-23T21:54:57.992Z,66.52
2023-12-23T21:59:00.860Z,66.89
2023-12-23T22:03:01.410Z,67.85
2023-12-23T22:07:01.661Z,65.92
2023-12-23T22:11:01.969Z,67.43
2023-12-23T22:15:06.726Z,66.91
2023-12-23T22:19:07.220Z,65.15
2023-12-23T22:23:08.082Z,65.98
2023-12-23T22:27:08.968Z,64.13
2023-12-23T22:31:12.359Z,64.55
2023-12-23T22:35:13.117Z,63.85
2023-12-23T22:39:13.504Z,63.92
2023-12-23T22:43:14.470Z,63.38
2023-12-23T22:47:17.690Z,65.23
2023-12-23T22:51:18.414Z,64.71
2023-12-23T22:55:18.961Z,64.93
2023-12-23T22:59:19.585Z,64.46
2023-12-23T23:03:22.578Z,64.88
2023-12-23T23:07:23.030Z,64.95
2023-12-23T23:11:23.543Z,64.48
2023-12-23T23:15:24.448Z,62.66
2023-12-23T23:19:27.420Z,63.11
2023-12-23T23:23:28.061Z,62.79
2023-12-23T23:27:29.068Z,63.49
2023-12-23T23:31:29.346Z,63.66
2023-12-23T23:35:32.167Z,62.52
2023-12-23T23:39:33.745Z,63.32
2023-12-23T23:43:35.151Z,63.26
2023-12-23T23:47:35.525Z,61.34
2023-12-23T23:51:39.852Z,62.19
2023-12-23T23:55:40.790Z,63.78
2023-12-23T23:59:41.035Z,63.80
